Terminal Aerodrome Forecast
Issued by NWS

Current Version | Previous Version | Text Only | Print | Product List | Glossary On
Versions: 1 2 3 4 5 6 7 8 9 10 11 12 13 14 15 16 17 18 19 20 21 22 23 24 25 26 27 28 29 30 31 32 33 34 35 36 37 38 39 40 41 42 43 44 45 46
000
FTUS46 KOTX 152005 AAC
TAFCOE
TAF AMD
KCOE 152005Z 1520/1618 26004KT 1/2SM SN OVC007
      TEMPO 1520/1522 1/4SM +SN
     FM152200 22002KT 1SM -SN OVC006
     FM160100 23003KT 4SM -SHSN BR OVC012
     FM160600 29003KT 6SM BR OVC009=

USA.gov is the U.S. government's official web portal to all federal, state and local government web resources and services.